Terminal Aerodrome Forecast
Issued by NWS Cleveland, OH

Home | Current Version | Previous Version | Text Only | Print | Product List | Glossary Off
Versions: 1 2 3 4 5 6 7 8 9 10 11 12 13 14 15 16 17 18 19 20 21 22

000
FTUS41 KCLE 221400 AAA
TAFYNG
TAF AMD
KYNG 221411Z 2214/2312 13006KT P6SM SCT045 BKN150
     FM221530 14008KT P6SM BKN040
     FM230900 14010KT 6SM BR VCSH SCT015 OVC025=

USA.gov is the U.S. government's official web portal to all federal, state and local government web resources and services.